Time;durP1;ratioP1;P1;durP2;ratioP2;P2;SDS_P1;SDS_P2;PMS_P1;PMS_P2;Temp;Humidity;BMP_temperature;BMP_pressure;BME280_temperature;BME280_humidity;BME280_pressure;Samples;Min_cycle;Max_cycle;Signal;HPM_P1;HPM_P2
2023/09/20 00:00:10;;;;;;;8.15;3.60;;;16.80;99.90;;;;;;4985008;28;20048;-57
2023/09/20 00:02:40;;;;;;;8.88;3.20;;;16.90;99.90;;;;;;4990395;28;20053;-57
2023/09/20 00:05:12;;;;;;;9.15;3.53;;;16.90;99.90;;;;;;5004980;28;20125;-56
2023/09/20 00:07:39;;;;;;;10.55;3.60;;;16.90;99.90;;;;;;5003531;28;20054;-56
2023/09/20 00:10:11;;;;;;;9.15;3.22;;;16.90;99.90;;;;;;5003352;28;20057;-58
2023/09/20 00:12:37;;;;;;;8.80;3.60;;;16.80;99.90;;;;;;5005335;28;20088;-55
2023/09/20 00:15:02;;;;;;;10.20;3.70;;;16.80;99.90;;;;;;5005525;28;20058;-57
2023/09/20 00:17:28;;;;;;;9.30;3.92;;;16.80;99.90;;;;;;5005775;28;20058;-57
2023/09/20 00:19:54;;;;;;;10.77;4.00;;;16.80;99.90;;;;;;5005260;28;20096;-56
2023/09/20 00:22:20;;;;;;;7.50;3.92;;;16.80;99.90;;;;;;5005045;28;20129;-56
2023/09/20 00:24:46;;;;;;;9.05;3.70;;;16.80;99.90;;;;;;5003849;28;20085;-56
2023/09/20 00:27:11;;;;;;;11.35;4.45;;;16.70;99.90;;;;;;5005678;28;20085;-56
2023/09/20 00:29:37;;;;;;;11.20;4.07;;;16.60;99.90;;;;;;5004392;28;20049;-57
2023/09/20 00:32:03;;;;;;;8.80;4.03;;;16.60;99.90;;;;;;4997033;28;20133;-57
2023/09/20 00:34:30;;;;;;;11.45;4.50;;;16.60;99.90;;;;;;4984311;28;20118;-56
2023/09/20 00:36:56;;;;;;;11.32;3.95;;;16.70;99.90;;;;;;4985455;28;20500;-55
2023/09/20 00:39:23;;;;;;;8.52;4.38;;;16.50;99.90;;;;;;4984374;28;20052;-57
2023/09/20 00:41:49;;;;;;;13.73;5.00;;;16.60;99.90;;;;;;4988271;28;20138;-57
2023/09/20 00:44:15;;;;;;;11.32;4.97;;;16.70;99.90;;;;;;4993712;28;20112;-56
2023/09/20 00:46:42;;;;;;;10.73;4.25;;;16.70;99.90;;;;;;4984196;28;20049;-56
2023/09/20 00:49:07;;;;;;;9.25;4.13;;;16.70;99.90;;;;;;4985399;28;20062;-57
2023/09/20 00:51:33;;;;;;;10.38;4.25;;;16.70;99.90;;;;;;4984752;28;20043;-57
2023/09/20 00:54:03;;;;;;;8.95;4.13;;;16.70;99.90;;;;;;4984388;28;20464;-56
2023/09/20 00:56:29;;;;;;;11.90;4.53;;;16.80;99.90;;;;;;4985150;28;20525;-56
2023/09/20 00:58:55;;;;;;;9.27;4.35;;;16.80;99.90;;;;;;4985092;28;20049;-57
2023/09/20 01:01:26;;;;;;;15.05;4.50;;;16.90;99.90;;;;;;4983963;28;20675;-56
2023/09/20 01:03:52;;;;;;;10.30;4.15;;;16.90;99.90;;;;;;4984936;28;20053;-56
2023/09/20 01:06:19;;;;;;;10.45;4.20;;;16.90;99.90;;;;;;4984469;28;20050;-57
2023/09/20 01:08:48;;;;;;;9.45;4.18;;;16.80;99.90;;;;;;4983281;28;20132;-56
2023/09/20 01:11:15;;;;;;;11.98;4.45;;;16.80;99.90;;;;;;4982799;28;20046;-56
2023/09/20 01:13:40;;;;;;;8.80;4.30;;;16.90;99.90;;;;;;4983070;28;20061;-56
2023/09/20 01:16:09;;;;;;;9.80;4.20;;;17.00;99.90;;;;;;4984069;28;20504;-56
2023/09/20 01:18:34;;;;;;;10.50;4.30;;;17.00;99.90;;;;;;4985618;28;20054;-57
2023/09/20 01:21:00;;;;;;;10.75;4.50;;;17.10;99.90;;;;;;4985103;28;20069;-56
2023/09/20 01:23:29;;;;;;;8.23;3.90;;;17.00;99.90;;;;;;4984363;28;20397;-57
2023/09/20 01:25:56;;;;;;;7.93;3.90;;;17.10;99.90;;;;;;4984968;28;20152;-56
2023/09/20 01:28:25;;;;;;;11.57;4.20;;;17.00;99.90;;;;;;4984116;28;20046;-55
2023/09/20 01:30:51;;;;;;;9.13;4.05;;;17.10;99.90;;;;;;4989430;28;20439;-55
2023/09/20 01:33:16;;;;;;;9.82;3.90;;;17.00;99.90;;;;;;4988789;28;20050;-55
2023/09/20 01:35:45;;;;;;;7.65;3.80;;;17.00;99.90;;;;;;4983920;28;20097;-56
2023/09/20 01:38:11;;;;;;;11.90;4.22;;;17.00;99.90;;;;;;4983770;28;20404;-57
2023/09/20 01:40:39;;;;;;;10.45;4.10;;;17.10;99.90;;;;;;4966362;28;20042;-57
2023/09/20 01:43:08;;;;;;;12.18;3.63;;;17.00;99.90;;;;;;4984303;28;20049;-57
2023/09/20 01:45:36;;;;;;;7.30;3.65;;;17.10;99.90;;;;;;4983017;28;20054;-56
2023/09/20 01:48:06;;;;;;;13.50;4.43;;;17.20;99.90;;;;;;4983620;28;20057;-55
2023/09/20 01:50:33;;;;;;;13.10;3.83;;;17.20;99.90;;;;;;4984455;28;20081;-56
2023/09/20 01:53:00;;;;;;;9.02;3.40;;;17.20;99.90;;;;;;4983683;28;20174;-56
2023/09/20 01:55:28;;;;;;;9.82;3.70;;;17.30;99.90;;;;;;4983842;28;20046;-56
2023/09/20 01:57:57;;;;;;;12.15;4.10;;;17.30;99.90;;;;;;4983731;28;20169;-56
2023/09/20 02:00:32;;;;;;;11.38;3.53;;;17.30;99.90;;;;;;4984361;28;20046;-56
2023/09/20 02:03:00;;;;;;;9.10;3.80;;;17.30;99.90;;;;;;4984089;28;20050;-57
2023/09/20 02:05:27;;;;;;;7.03;3.30;;;17.30;99.90;;;;;;4983426;28;20104;-55
2023/09/20 02:07:55;;;;;;;10.07;3.80;;;17.30;99.90;;;;;;4981703;28;20142;-56
2023/09/20 02:10:21;;;;;;;11.60;3.78;;;17.20;99.90;;;;;;4982971;28;20034;-56
2023/09/20 02:12:48;;;;;;;10.70;3.90;;;17.20;99.90;;;;;;4983454;28;20096;-55
2023/09/20 02:15:15;;;;;;;11.27;3.67;;;17.30;99.90;;;;;;4983688;28;20050;-57
2023/09/20 02:17:44;;;;;;;12.98;4.10;;;17.30;99.90;;;;;;4984412;28;20580;-57
2023/09/20 02:20:19;;;;;;;10.10;3.53;;;17.30;99.90;;;;;;4981755;28;20522;-56
2023/09/20 02:22:45;;;;;;;;;;;17.30;99.90;;;;;;4983574;28;20047;-56
2023/09/20 02:25:12;;;;;;;7.85;3.50;;;17.30;99.90;;;;;;4983987;28;19926;-56
2023/09/20 02:27:42;;;;;;;8.90;3.20;;;17.30;99.90;;;;;;4983084;28;20135;-58
2023/09/20 02:30:19;;;;;;;9.80;3.28;;;17.30;99.90;;;;;;4986214;28;20116;-56
2023/09/20 02:32:52;;;;;;;8.27;3.42;;;17.30;99.90;;;;;;4992712;28;20081;-56
2023/09/20 02:35:22;;;;;;;9.18;3.60;;;17.30;99.90;;;;;;4982968;28;20149;-57
2023/09/20 02:37:49;;;;;;;8.88;3.38;;;17.30;99.90;;;;;;4983121;28;20436;-56
2023/09/20 02:40:15;;;;;;;10.18;3.65;;;17.30;99.90;;;;;;4983766;28;20038;-57
2023/09/20 02:42:43;;;;;;;9.43;3.03;;;17.40;99.90;;;;;;4982786;28;20034;-57
2023/09/20 02:45:10;;;;;;;10.25;3.25;;;17.30;99.90;;;;;;4984446;28;20097;-56
2023/09/20 02:47:36;;;;;;;9.07;3.08;;;17.30;99.90;;;;;;4983144;28;20050;-56
2023/09/20 02:50:04;;;;;;;10.40;3.58;;;17.30;99.90;;;;;;4983593;28;20049;-57
2023/09/20 02:52:33;;;;;;;9.52;2.90;;;17.30;99.90;;;;;;4982649;28;20778;-56
2023/09/20 02:55:00;;;;;;;10.55;3.47;;;17.40;99.90;;;;;;4982560;28;20055;-57
2023/09/20 02:57:26;;;;;;;8.70;3.05;;;17.40;99.90;;;;;;4983839;28;20050;-57
2023/09/20 02:59:52;;;;;;;7.75;3.20;;;17.50;99.90;;;;;;4982648;28;20485;-56
2023/09/20 03:02:19;;;;;;;7.90;3.10;;;17.50;99.90;;;;;;4983211;28;20097;-57
2023/09/20 03:04:45;;;;;;;7.22;3.03;;;17.40;99.90;;;;;;4983145;28;20068;-57
2023/09/20 03:07:10;;;;;;;9.88;3.42;;;17.40;99.90;;;;;;4983416;28;20117;-59
2023/09/20 03:09:36;;;;;;;9.13;3.20;;;17.50;99.90;;;;;;4981444;28;20045;-57
2023/09/20 03:12:06;;;;;;;7.63;2.70;;;17.40;99.90;;;;;;4983679;28;20100;-57
2023/09/20 03:14:39;;;;;;;11.02;3.05;;;17.40;99.90;;;;;;4983281;28;20069;-56
2023/09/20 03:17:05;;;;;;;10.60;3.22;;;17.40;99.90;;;;;;4983254;28;20097;-56
2023/09/20 03:19:31;;;;;;;8.75;3.10;;;17.30;99.90;;;;;;4983285;28;20039;-56
2023/09/20 03:21:59;;;;;;;11.38;3.17;;;17.40;99.90;;;;;;4983413;28;20101;-57
2023/09/20 03:24:26;;;;;;;8.35;3.05;;;17.50;99.90;;;;;;4981424;28;20050;-57
2023/09/20 03:26:52;;;;;;;10.52;2.92;;;17.40;99.90;;;;;;4981653;28;20141;-56
2023/09/20 03:29:18;;;;;;;7.70;2.90;;;17.40;99.90;;;;;;4983837;28;20046;-56
2023/09/20 03:31:44;;;;;;;8.60;3.22;;;17.40;99.90;;;;;;4994604;28;20050;-57
2023/09/20 03:34:11;;;;;;;8.13;2.72;;;17.50;99.90;;;;;;4983519;28;20048;-56
2023/09/20 03:36:41;;;;;;;8.20;2.90;;;17.40;99.90;;;;;;4985968;28;20073;-56
2023/09/20 03:39:06;;;;;;;9.30;3.10;;;17.40;99.90;;;;;;4985713;28;20058;-57
2023/09/20 03:41:32;;;;;;;11.38;3.30;;;17.40;99.90;;;;;;4985623;28;20571;-57
2023/09/20 03:43:58;;;;;;;6.97;3.15;;;17.50;99.90;;;;;;4986663;28;20047;-57
2023/09/20 03:46:23;;;;;;;8.13;2.92;;;17.50;99.90;;;;;;4986343;28;20050;-56
2023/09/20 03:48:49;;;;;;;7.57;3.15;;;17.50;99.90;;;;;;4986520;28;20088;-57
2023/09/20 03:51:15;;;;;;;8.05;3.13;;;17.50;99.90;;;;;;4986235;28;20046;-57
2023/09/20 03:53:43;;;;;;;7.47;2.92;;;17.30;99.90;;;;;;4984709;28;20669;-56
2023/09/20 03:56:08;;;;;;;12.27;3.38;;;17.30;99.90;;;;;;4986546;28;20095;-57
2023/09/20 03:58:34;;;;;;;10.18;3.60;;;17.40;99.90;;;;;;4985840;28;20042;-57
2023/09/20 04:01:02;;;;;;;8.13;3.30;;;17.30;99.90;;;;;;4986662;28;20189;-57
2023/09/20 04:03:28;;;;;;;7.35;3.40;;;17.40;99.90;;;;;;4986566;28;20712;-57
2023/09/20 04:05:57;;;;;;;11.65;3.90;;;17.40;99.90;;;;;;4985503;28;20046;-57
2023/09/20 04:08:23;;;;;;;11.27;3.60;;;17.40;99.90;;;;;;4984434;28;20047;-57
2023/09/20 04:10:48;;;;;;;10.70;3.70;;;17.40;99.90;;;;;;4985778;28;20038;-58
2023/09/20 04:13:14;;;;;;;9.95;3.50;;;17.40;99.90;;;;;;4984571;28;20440;-57
2023/09/20 04:15:44;;;;;;;8.05;3.53;;;17.40;99.90;;;;;;4984346;28;20051;-56
2023/09/20 04:18:10;;;;;;;9.93;3.72;;;17.40;99.90;;;;;;4985903;28;20182;-57
2023/09/20 04:20:37;;;;;;;12.32;3.85;;;17.40;99.90;;;;;;4985631;28;20074;-57
2023/09/20 04:23:03;;;;;;;12.35;3.67;;;17.40;99.90;;;;;;4984937;28;20464;-56
2023/09/20 04:25:29;;;;;;;9.43;3.67;;;17.40;99.90;;;;;;4985413;28;20451;-57
2023/09/20 04:27:54;;;;;;;8.07;3.50;;;17.30;99.90;;;;;;4985983;28;20126;-57
2023/09/20 04:30:21;;;;;;;8.35;3.15;;;17.30;99.90;;;;;;4987544;28;20045;-56
2023/09/20 04:32:47;;;;;;;9.88;3.53;;;17.30;99.90;;;;;;4986657;28;20058;-57
2023/09/20 04:35:13;;;;;;;10.00;3.92;;;17.30;99.90;;;;;;4985934;28;20046;-56
2023/09/20 04:37:38;;;;;;;10.45;3.70;;;17.40;99.90;;;;;;4988798;28;20052;-56
2023/09/20 04:40:07;;;;;;;10.80;3.92;;;17.40;99.90;;;;;;4990376;28;20053;-56
2023/09/20 04:42:35;;;;;;;10.25;3.53;;;17.30;99.90;;;;;;4985418;28;20039;-57
2023/09/20 04:45:06;;;;;;;11.05;3.35;;;17.30;99.90;;;;;;4984128;28;20053;-56
2023/09/20 04:47:34;;;;;;;11.10;3.28;;;17.30;99.90;;;;;;4985344;28;20113;-57
2023/09/20 04:49:59;;;;;;;7.75;3.50;;;17.20;99.90;;;;;;4983298;28;20062;-57
2023/09/20 04:52:25;;;;;;;10.43;3.70;;;17.20;99.90;;;;;;4984703;28;20042;-56
2023/09/20 04:54:52;;;;;;;6.93;3.20;;;17.10;99.90;;;;;;4985105;28;20160;-57
2023/09/20 04:57:17;;;;;;;11.10;3.53;;;17.10;99.90;;;;;;4984819;28;20046;-58
2023/09/20 04:59:45;;;;;;;11.50;3.65;;;17.00;99.90;;;;;;4984046;28;20290;-57
2023/09/20 05:02:10;;;;;;;6.72;2.97;;;17.00;99.90;;;;;;4984139;28;20117;-57
2023/09/20 05:04:36;;;;;;;11.00;3.03;;;16.90;99.90;;;;;;4985112;28;20125;-57
2023/09/20 05:07:06;;;;;;;8.27;3.22;;;16.80;99.90;;;;;;4982892;28;20588;-57
2023/09/20 05:09:34;;;;;;;9.23;3.40;;;16.70;99.90;;;;;;4985189;28;20647;-55
2023/09/20 05:12:01;;;;;;;9.85;3.40;;;16.60;99.90;;;;;;4984780;28;20074;-56
2023/09/20 05:14:27;;;;;;;8.65;3.08;;;16.60;99.90;;;;;;4998969;28;20077;-57
2023/09/20 05:16:52;;;;;;;8.73;3.33;;;16.40;99.90;;;;;;5004533;28;20140;-56
2023/09/20 05:19:18;;;;;;;12.27;4.18;;;16.40;99.90;;;;;;5002943;28;20129;-57
2023/09/20 05:21:45;;;;;;;11.55;3.40;;;16.50;99.90;;;;;;5003835;28;20484;-56
2023/09/20 05:24:11;;;;;;;8.95;3.60;;;16.40;99.90;;;;;;5001449;28;20045;-57
2023/09/20 05:26:36;;;;;;;9.77;3.90;;;16.30;99.90;;;;;;5003403;28;20491;-57
2023/09/20 05:29:03;;;;;;;13.43;3.63;;;16.20;99.90;;;;;;5004115;28;20046;-57
2023/09/20 05:31:29;;;;;;;8.73;3.58;;;16.20;99.90;;;;;;4997515;28;20050;-57
2023/09/20 05:33:55;;;;;;;11.38;3.45;;;16.20;99.90;;;;;;4983882;28;20042;-57
2023/09/20 05:36:27;;;;;;;10.00;3.78;;;16.20;99.90;;;;;;4982404;28;20101;-59
2023/09/20 05:38:53;;;;;;;9.80;3.20;;;16.20;99.90;;;;;;4984117;28;20065;-57
2023/09/20 05:41:19;;;;;;;6.40;3.35;;;16.20;99.90;;;;;;4983773;28;20623;-57
2023/09/20 05:43:44;;;;;;;8.65;3.63;;;16.20;99.90;;;;;;4994569;28;20052;-57
2023/09/20 05:46:13;;;;;;;7.40;3.83;;;16.20;99.90;;;;;;5003747;28;20042;-56
2023/09/20 05:48:39;;;;;;;9.43;3.33;;;16.20;99.90;;;;;;5004055;28;20095;-56
2023/09/20 05:51:05;;;;;;;7.82;3.40;;;16.10;99.90;;;;;;5003739;28;20463;-56
2023/09/20 05:53:33;;;;;;;9.40;3.40;;;16.10;99.90;;;;;;5002827;28;20531;-56
2023/09/20 05:56:05;;;;;;;10.85;3.40;;;16.30;99.90;;;;;;5003564;28;20125;-56
2023/09/20 05:58:31;;;;;;;10.60;3.40;;;16.20;99.90;;;;;;5000945;28;20255;-57
2023/09/20 06:00:59;;;;;;;7.25;3.45;;;16.20;99.90;;;;;;5003869;28;20072;-56
2023/09/20 06:03:25;;;;;;;9.43;3.35;;;16.20;99.90;;;;;;5004577;28;21003;-57
2023/09/20 06:05:50;;;;;;;7.13;3.10;;;16.20;99.90;;;;;;5003422;28;20042;-57
2023/09/20 06:08:16;;;;;;;9.48;3.25;;;16.10;99.90;;;;;;5001476;28;20491;-54
2023/09/20 06:10:44;;;;;;;7.65;3.22;;;16.20;99.90;;;;;;4997034;28;20637;-57
2023/09/20 06:13:10;;;;;;;9.52;3.30;;;16.20;99.90;;;;;;4999131;28;20062;-55
2023/09/20 06:15:37;;;;;;;6.38;2.70;;;16.20;99.90;;;;;;4993481;28;20535;-56
2023/09/20 06:18:03;;;;;;;7.93;3.25;;;16.20;99.90;;;;;;4987995;28;20042;-57
2023/09/20 06:20:29;;;;;;;9.48;3.15;;;16.20;99.90;;;;;;5002697;28;20496;-55
2023/09/20 06:22:56;;;;;;;11.05;3.47;;;16.20;99.90;;;;;;4998918;28;20105;-55
2023/09/20 06:25:22;;;;;;;8.20;3.38;;;16.20;99.90;;;;;;4999172;28;20129;-56
2023/09/20 06:27:50;;;;;;;6.65;3.05;;;16.30;99.90;;;;;;5000775;28;20046;-57
2023/09/20 06:30:24;;;;;;;9.93;3.40;;;16.20;99.90;;;;;;4989264;28;20045;-56
2023/09/20 06:32:50;;;;;;;9.27;3.47;;;16.20;99.90;;;;;;4992854;28;20071;-57
2023/09/20 06:35:19;;;;;;;12.93;3.60;;;16.40;99.90;;;;;;4999401;28;20046;-56
2023/09/20 06:37:48;;;;;;;10.07;3.50;;;16.30;99.90;;;;;;4993566;28;20050;-56
2023/09/20 06:40:26;;;;;;;7.68;2.90;;;16.30;99.90;;;;;;5002164;28;20046;-56
2023/09/20 06:42:52;;;;;;;9.82;3.10;;;16.20;99.90;;;;;;4989943;28;20043;-57
2023/09/20 06:45:19;;;;;;;5.40;2.97;;;16.30;99.90;;;;;;4995436;28;20042;-55
2023/09/20 06:47:45;;;;;;;8.50;3.08;;;16.40;99.90;;;;;;4988589;28;20547;-57
2023/09/20 06:50:13;;;;;;;8.05;2.95;;;16.50;99.90;;;;;;4999078;28;20459;-56
2023/09/20 06:52:39;;;;;;;8.80;3.35;;;16.50;99.90;;;;;;5001995;28;20100;-56
2023/09/20 06:55:05;;;;;;;7.78;3.22;;;16.50;99.90;;;;;;5001423;28;20133;-56
2023/09/20 06:57:31;;;;;;;7.35;2.92;;;16.60;99.90;;;;;;4998108;28;20053;-55
2023/09/20 06:59:57;;;;;;;6.95;2.80;;;16.70;99.90;;;;;;4993392;28;20053;-56
2023/09/20 07:02:24;;;;;;;7.50;2.90;;;16.70;99.90;;;;;;5003619;28;20042;-57
2023/09/20 07:04:49;;;;;;;8.75;3.20;;;16.70;99.90;;;;;;5000662;28;20046;-56
2023/09/20 07:07:17;;;;;;;6.50;3.22;;;16.80;99.90;;;;;;5002075;28;20108;-57
2023/09/20 07:09:43;;;;;;;10.65;3.47;;;16.80;99.90;;;;;;4997585;28;20544;-56
2023/09/20 07:12:10;;;;;;;10.98;3.60;;;16.80;99.90;;;;;;4999265;28;20105;-57
2023/09/20 07:14:35;;;;;;;8.95;3.17;;;16.90;99.90;;;;;;5001775;28;20416;-55
2023/09/20 07:17:02;;;;;;;9.20;3.42;;;17.00;99.90;;;;;;4989305;28;20093;-55
2023/09/20 07:19:29;;;;;;;8.32;3.50;;;17.00;99.90;;;;;;4995201;28;20128;-56
2023/09/20 07:21:55;;;;;;;7.95;2.90;;;17.10;99.90;;;;;;5002503;28;20049;-57
2023/09/20 07:24:24;;;;;;;10.55;3.78;;;17.10;99.90;;;;;;5001467;28;20048;-55
2023/09/20 07:26:54;;;;;;;7.50;3.05;;;17.10;99.90;;;;;;5006141;28;20050;-55
2023/09/20 07:29:21;;;;;;;11.48;3.65;;;17.10;99.90;;;;;;5006121;28;20038;-55
2023/09/20 07:31:48;;;;;;;7.88;3.17;;;17.10;99.90;;;;;;4993529;28;20073;-53
2023/09/20 07:34:15;;;;;;;8.82;3.33;;;17.20;99.90;;;;;;5006053;28;20042;-54
2023/09/20 07:36:43;;;;;;;7.22;3.17;;;17.10;99.90;;;;;;5004497;28;20054;-54
2023/09/20 07:39:12;;;;;;;7.28;3.10;;;17.20;99.90;;;;;;5005302;28;20057;-52
2023/09/20 07:41:44;;;;;;;9.68;3.30;;;17.10;99.90;;;;;;5005061;28;20523;-54
2023/09/20 07:44:11;;;;;;;11.10;3.30;;;17.20;99.90;;;;;;5005915;28;20045;-54
2023/09/20 07:46:38;;;;;;;8.68;3.55;;;17.20;99.90;;;;;;5005253;28;20427;-54
2023/09/20 07:49:09;;;;;;;9.73;3.58;;;17.20;99.90;;;;;;5006139;28;20053;-55
2023/09/20 07:51:36;;;;;;;9.32;3.30;;;17.30;99.90;;;;;;5005096;28;20077;-54
2023/09/20 07:54:03;;;;;;;8.40;3.33;;;17.30;99.90;;;;;;5005033;28;20073;-54
2023/09/20 07:56:29;;;;;;;7.75;3.45;;;17.50;99.90;;;;;;5004625;28;20050;-54
2023/09/20 07:58:55;;;;;;;8.52;3.60;;;17.50;99.90;;;;;;5005046;28;20616;-54
2023/09/20 08:01:21;;;;;;;7.97;3.50;;;17.60;99.90;;;;;;5005485;28;20519;-54
2023/09/20 08:03:51;;;;;;;11.00;3.63;;;17.70;99.90;;;;;;5004600;28;20133;-53
2023/09/20 08:06:21;;;;;;;9.27;3.20;;;17.80;99.90;;;;;;4987892;28;20049;-54
2023/09/20 08:08:50;;;;;;;8.85;3.10;;;17.90;99.90;;;;;;5004348;28;20034;-54
2023/09/20 08:11:16;;;;;;;7.35;3.28;;;18.00;99.90;;;;;;5005336;28;20493;-54
2023/09/20 08:13:41;;;;;;;7.38;3.15;;;18.00;99.90;;;;;;5005742;28;20050;-53
2023/09/20 08:16:10;;;;;;;11.60;3.50;;;17.90;99.90;;;;;;5006037;28;20140;-54
2023/09/20 08:21:25;;;;;;;8.80;3.33;;;17.90;99.90;;;;;;5002387;28;20045;-54
2023/09/20 08:59:52;;;;;;;9.38;3.13;;;18.30;99.90;;;;;;4985157;28;20050;-54
2023/09/20 09:02:18;;;;;;;6.22;2.83;;;18.40;99.90;;;;;;4984461;28;20050;-54
2023/09/20 09:04:49;;;;;;;5.03;2.78;;;18.60;99.90;;;;;;4985862;28;20132;-55
2023/09/20 09:07:18;;;;;;;8.52;3.20;;;18.60;99.90;;;;;;4983616;28;20114;-54
2023/09/20 09:09:46;;;;;;;7.38;3.22;;;18.70;99.90;;;;;;4982776;28;20054;-55
2023/09/20 09:12:12;;;;;;;8.77;3.10;;;18.60;99.90;;;;;;4984797;28;20046;-54
2023/09/20 09:14:39;;;;;;;5.72;3.03;;;18.50;99.90;;;;;;4983512;28;20061;-54
2023/09/20 09:17:06;;;;;;;6.68;3.15;;;18.50;99.90;;;;;;4983223;28;20046;-55
2023/09/20 09:19:33;;;;;;;7.13;3.20;;;18.50;99.90;;;;;;4984963;28;20049;-54
2023/09/20 09:22:00;;;;;;;9.32;3.42;;;18.60;99.90;;;;;;4984085;28;20050;-55
2023/09/20 09:24:27;;;;;;;5.63;3.38;;;18.60;99.90;;;;;;4985013;28;20393;-54
2023/09/20 09:27:06;;;;;;;8.52;3.33;;;18.70;99.90;;;;;;4983636;28;20121;-55
2023/09/20 09:29:32;;;;;;;10.43;3.17;;;18.60;99.90;;;;;;4985012;28;20721;-53
2023/09/20 09:32:01;;;;;;;7.00;3.10;;;18.60;99.90;;;;;;4992383;28;20089;-54
2023/09/20 09:34:26;;;;;;;7.20;2.88;;;18.70;99.90;;;;;;5003661;28;20049;-54
2023/09/20 09:36:53;;;;;;;11.32;3.20;;;18.70;99.90;;;;;;5002502;28;20038;-54
2023/09/20 09:39:19;;;;;;;12.50;3.47;;;18.70;99.90;;;;;;5003918;28;20172;-55
2023/09/20 09:41:46;;;;;;;5.95;2.92;;;18.70;99.90;;;;;;4985079;28;20408;-54
2023/09/20 09:44:13;;;;;;;9.23;3.03;;;18.70;99.90;;;;;;5004009;28;20613;-53
2023/09/20 09:46:40;;;;;;;7.63;2.90;;;18.80;99.90;;;;;;5002398;28;20160;-54
2023/09/20 09:49:16;;;;;;;11.73;3.22;;;18.70;99.90;;;;;;5002780;28;20540;-55
2023/09/20 09:51:45;;;;;;;7.20;3.03;;;18.70;99.90;;;;;;5002568;28;20156;-54
2023/09/20 09:54:12;;;;;;;8.02;3.00;;;18.70;99.90;;;;;;5002577;28;20060;-55
2023/09/20 09:56:39;;;;;;;9.38;2.83;;;18.80;99.90;;;;;;5003011;28;20187;-54
2023/09/20 09:59:07;;;;;;;6.15;2.58;;;18.80;99.90;;;;;;5003824;28;20149;-54
2023/09/20 10:01:37;;;;;;;6.45;2.63;;;18.90;99.90;;;;;;5003691;28;20102;-55
2023/09/20 10:04:13;;;;;;;5.30;2.40;;;18.90;99.90;;;;;;5002742;28;20436;-55
2023/09/20 10:06:41;;;;;;;7.55;2.80;;;19.00;99.90;;;;;;5002597;28;20634;-53
2023/09/20 10:09:12;;;;;;;6.30;2.88;;;18.90;99.90;;;;;;5003008;28;20479;-54
2023/09/20 10:11:41;;;;;;;5.30;2.38;;;19.00;99.90;;;;;;5002359;28;20137;-55
2023/09/20 10:14:09;;;;;;;4.88;2.58;;;19.00;99.90;;;;;;5001517;28;20120;-55
2023/09/20 10:16:42;;;;;;;5.80;2.40;;;19.00;99.90;;;;;;5002946;28;20092;-54
2023/09/20 10:19:10;;;;;;;6.88;2.20;;;19.10;99.90;;;;;;5000685;28;20057;-54
2023/09/20 10:21:37;;;;;;;7.43;3.08;;;19.20;99.90;;;;;;5001592;28;20042;-55
2023/09/20 10:24:05;;;;;;;5.22;2.50;;;19.20;99.90;;;;;;5002661;28;20140;-54
2023/09/20 10:26:37;;;;;;;6.15;2.30;;;19.40;99.90;;;;;;5002353;28;20108;-55
2023/09/20 10:29:25;;;;;;;6.60;2.28;;;19.40;99.90;;;;;;5003699;28;20046;-54
2023/09/20 10:32:13;;;;;;;5.25;2.50;;;19.50;99.90;;;;;;4994248;28;20453;-55
2023/09/20 10:34:39;;;;;;;3.67;2.03;;;19.60;99.90;;;;;;4983907;28;20173;-55
2023/09/20 10:37:10;;;;;;;5.55;2.22;;;19.60;99.90;;;;;;4983269;28;20130;-54
2023/09/20 10:39:42;;;;;;;5.78;2.47;;;19.60;99.90;;;;;;4983787;28;20046;-55
2023/09/20 10:42:12;;;;;;;6.35;2.30;;;19.70;99.90;;;;;;4983703;28;20082;-54
2023/09/20 10:44:41;;;;;;;5.15;2.25;;;19.80;99.90;;;;;;4986813;28;20054;-55
2023/09/20 10:47:11;;;;;;;5.40;2.30;;;19.80;99.90;;;;;;4989079;28;20046;-54
2023/09/20 10:49:48;;;;;;;5.05;2.30;;;19.90;99.90;;;;;;4986942;28;20053;-54
2023/09/20 10:52:32;;;;;;;5.63;2.47;;;19.80;99.90;;;;;;4984923;28;20053;-54
2023/09/20 10:55:17;;;;;;;3.33;2.00;;;19.70;99.90;;;;;;4987733;28;20556;-55
2023/09/20 10:57:43;;;;;;;6.55;2.00;;;19.90;99.90;;;;;;4987335;28;20046;-53
2023/09/20 11:00:09;;;;;;;4.63;2.20;;;19.70;99.90;;;;;;4987035;28;20065;-55
2023/09/20 11:02:38;;;;;;;4.47;1.80;;;19.60;99.90;;;;;;4987546;28;20065;-54
2023/09/20 11:05:07;;;;;;;4.70;1.98;;;19.60;99.90;;;;;;4987173;28;20042;-54
2023/09/20 11:07:33;;;;;;;5.45;1.98;;;19.60;99.90;;;;;;4986788;28;20093;-55
2023/09/20 11:09:59;;;;;;;5.22;2.20;;;19.60;99.90;;;;;;4987159;28;20050;-54
2023/09/20 11:12:24;;;;;;;3.38;1.90;;;19.60;99.90;;;;;;4986813;28;20043;-55
2023/09/20 11:14:51;;;;;;;4.43;1.90;;;19.60;99.90;;;;;;4986262;28;20078;-55
2023/09/20 11:17:18;;;;;;;4.18;2.00;;;19.50;99.90;;;;;;4986924;28;20130;-54
2023/09/20 11:19:44;;;;;;;6.10;2.42;;;19.50;99.90;;;;;;4987309;28;20061;-54
2023/09/20 11:22:13;;;;;;;3.72;2.10;;;19.50;99.90;;;;;;4984471;28;20384;-53
2023/09/20 11:24:41;;;;;;;5.07;1.90;;;19.40;99.90;;;;;;4987082;28;20125;-56
2023/09/20 11:27:08;;;;;;;3.90;1.85;;;19.50;99.90;;;;;;4986984;28;20050;-54
2023/09/20 11:29:38;;;;;;;5.93;2.40;;;19.50;99.90;;;;;;4986476;28;20780;-53
2023/09/20 11:32:10;;;;;;;6.80;2.42;;;19.40;99.90;;;;;;4997319;28;20118;-55
2023/09/20 11:34:48;;;;;;;5.32;2.22;;;19.50;99.90;;;;;;4986873;28;20505;-54
2023/09/20 11:37:14;;;;;;;5.20;2.33;;;19.50;99.90;;;;;;4985616;28;20397;-53
2023/09/20 11:39:43;;;;;;;4.75;2.10;;;19.50;99.90;;;;;;4986553;28;20082;-56
2023/09/20 11:42:10;;;;;;;5.35;2.45;;;19.50;99.90;;;;;;4987086;28;20054;-53
2023/09/20 11:44:36;;;;;;;7.13;2.20;;;19.50;99.90;;;;;;4985862;28;20145;-54
2023/09/20 11:47:03;;;;;;;7.03;2.67;;;19.40;99.90;;;;;;4987016;28;20145;-55
2023/09/20 11:49:29;;;;;;;3.88;1.83;;;19.60;99.90;;;;;;4985397;28;20085;-54
2023/09/20 11:51:59;;;;;;;5.45;2.25;;;19.60;99.90;;;;;;4985292;28;20046;-55
2023/09/20 11:54:37;;;;;;;5.57;2.30;;;19.70;99.90;;;;;;4986634;28;20042;-55
2023/09/20 11:57:03;;;;;;;5.50;2.13;;;19.70;99.90;;;;;;4985258;28;20046;-53
2023/09/20 11:59:29;;;;;;;5.05;2.08;;;19.80;99.90;;;;;;4984544;28;20563;-54
2023/09/20 12:01:55;;;;;;;5.50;1.98;;;19.80;99.90;;;;;;4985187;28;20046;-54
2023/09/20 12:04:21;;;;;;;6.10;2.05;;;19.90;99.90;;;;;;4986329;28;20038;-54
2023/09/20 12:06:47;;;;;;;6.68;2.15;;;20.10;99.90;;;;;;4968798;28;20056;-54
2023/09/20 12:09:13;;;;;;;7.03;2.30;;;19.80;99.90;;;;;;4984374;28;20112;-54
2023/09/20 12:11:40;;;;;;;4.78;2.38;;;19.80;99.90;;;;;;4985380;28;20043;-53
2023/09/20 12:14:12;;;;;;;4.93;2.10;;;19.80;99.90;;;;;;4986695;28;20098;-54
2023/09/20 12:16:38;;;;;;;3.22;1.80;;;19.90;99.90;;;;;;4986185;28;20125;-54
2023/09/20 12:19:04;;;;;;;4.50;2.10;;;20.00;99.90;;;;;;4986477;28;20121;-53
2023/09/20 12:21:30;;;;;;;4.47;2.30;;;20.00;99.90;;;;;;4985451;28;20085;-54
2023/09/20 12:23:55;;;;;;;3.85;1.98;;;20.20;99.90;;;;;;4985487;28;20061;-55
2023/09/20 12:26:21;;;;;;;4.05;2.25;;;20.30;99.90;;;;;;4985590;28;20130;-54
2023/09/20 12:28:47;;;;;;;3.78;2.00;;;20.50;99.90;;;;;;4986185;28;20549;-54
2023/09/20 12:31:13;;;;;;;4.30;1.90;;;20.60;99.90;;;;;;4993660;28;20045;-54
2023/09/20 12:33:39;;;;;;;5.90;2.05;;;20.90;99.90;;;;;;4997967;28;20427;-53
2023/09/20 12:36:07;;;;;;;5.28;2.45;;;21.00;99.90;;;;;;4990310;28;20039;-55
2023/09/20 12:38:34;;;;;;;5.70;2.40;;;21.00;99.90;;;;;;4991199;28;20086;-54
2023/09/20 12:41:00;;;;;;;4.28;2.28;;;21.20;99.90;;;;;;4987331;28;20559;-54
2023/09/20 12:43:26;;;;;;;6.57;2.50;;;21.30;99.90;;;;;;5000843;28;20137;-54
2023/09/20 12:45:57;;;;;;;5.15;2.10;;;21.50;99.90;;;;;;4992552;28;20042;-53
2023/09/20 12:48:22;;;;;;;4.40;2.55;;;21.50;99.90;;;;;;5002247;28;20053;-54
2023/09/20 12:50:48;;;;;;;5.63;2.50;;;21.40;99.90;;;;;;4998913;28;20143;-53
2023/09/20 12:53:14;;;;;;;4.90;2.25;;;21.20;99.90;;;;;;5003088;28;20629;-56
2023/09/20 12:55:40;;;;;;;5.85;2.78;;;21.30;99.90;;;;;;5003328;28;20645;-55
2023/09/20 12:58:06;;;;;;;4.07;2.30;;;21.40;99.90;;;;;;5004074;28;20049;-56
2023/09/20 13:00:35;;;;;;;8.18;2.45;;;21.60;99.90;;;;;;4997983;28;20045;-53
2023/09/20 13:03:03;;;;;;;6.30;2.80;;;21.60;99.90;;;;;;5000407;28;20045;-54
2023/09/20 13:05:29;;;;;;;6.15;2.25;;;21.60;99.90;;;;;;4988959;28;21015;-55
2023/09/20 13:07:57;;;;;;;7.75;2.40;;;21.80;99.90;;;;;;4982291;28;20080;-56
2023/09/20 13:10:23;;;;;;;7.38;3.10;;;21.90;99.90;;;;;;5000636;28;20038;-56
2023/09/20 13:12:49;;;;;;;5.70;2.80;;;22.10;99.90;;;;;;5004288;28;20129;-56
2023/09/20 13:15:17;;;;;;;5.47;3.05;;;22.30;99.90;;;;;;4990442;28;20129;-57
2023/09/20 13:17:44;;;;;;;5.38;2.72;;;22.50;99.90;;;;;;4990162;28;20045;-56
2023/09/20 13:20:14;;;;;;;5.50;2.90;;;22.70;99.90;;;;;;4988682;28;20038;-57
2023/09/20 13:22:41;;;;;;;4.53;2.65;;;22.80;99.90;;;;;;4988307;28;20038;-52
2023/09/20 13:25:14;;;;;;;5.55;2.70;;;22.90;99.90;;;;;;4988683;28;20168;-57